Aeroporto :
LOGIN :

Iscrizione | Disclaimer

   EN    FR    IT 

 










Sommario :    VFR   VFR Marginale   IFR   IFR Intensivo   IFR Molto Intensivo
Visibilità : 
Base nubi : 
>= 8 km
>= 3000ft
5 / 8 km
1000 / 3000 ft
1500m / 5 km
500 / 1000 ft
800 / 1500m
200 / 500 ft
< 800m
< 200 ft
Simboli :   Temporali  Nebbia  Neve Forte  Precipitazioni Forti  Vento > 20 kt
SIGMETs :   Varie  Temporali  Ghiacco  Turbolenza  Onda orograficha  Ceneri Vulcaniche






- Altitudine del aeroporto : 1966 ft
- Codice IATA : SGE


EDGS - Siegerland

ULTIMO METAR :
  • 180550Z 16004KT CAVOK 16/14 Q1016

METARs OBSOLETI :
  • 180520Z 16004KT CAVOK 14/12 Q1016
  • 180450Z AUTO 16004KT 9999 // FEW064/// BKN084/// BKN097/// 14/12 Q1016
  • 180420Z AUTO 17003KT 9999 // SCT067/// SCT076/// OVC086/// 14/12 Q1016
  • 180350Z AUTO 17002KT 9999 // SCT069/// OVC089/// 14/12 Q1015
  • 180320Z AUTO 00000KT 9999 // OVC072/// 15/12 Q1016
  • 180250Z AUTO 21003KT 9999 // FEW073/// OVC100/// 14/12 Q1016
  • 180220Z AUTO 24003KT 9999 // OVC100/// 14/12 Q1016
  • 180150Z AUTO 20003KT 170V230 9999 // BKN110/// 14/12 Q1016
  • 180120Z AUTO VRB01KT 9999 // NCD 14/11 Q1016

TAF TAF EDGS
Valido dal 18 a 06 ore il 18 a 15 ore UTC


180550Z 1806/1815 14006KT 9999 FEW020
BECMG 1811/1814 20007KT
PROB40
TEMPO 1811/1815 21020G40KT 2500 TSRA BKN010CB



MetMap, La meteo Aeronautica in un colpo d'occhio ! - Copyright ORBIFLY Dicembre 2007 - Disclaimer

ORBIFLY MET'MAP TEAM :

Programmazione e sviluppo : Alexandra Zaïnal
Concezione : Baudouin d'Aumeries
Supporto tecnico e logistico : Manuel Goepfert
Aiuto : Marc-Olivier Méhu
Aiuto per la traduzione : Arnaldo La Scala




FONTI E CREDITI :

   NOAA